createdAt,value
2022-10-21T07:05:19.260Z,15.00
2022-10-21T07:07:47.262Z,15.10
2022-10-21T07:10:15.290Z,15.10
2022-10-21T07:12:43.361Z,15.20
2022-10-21T07:15:12.175Z,15.20
2022-10-21T07:17:40.508Z,15.30
2022-10-21T07:20:10.672Z,15.40
2022-10-21T07:22:39.991Z,15.50
2022-10-21T07:25:09.334Z,15.50
2022-10-21T07:27:37.651Z,15.50
2022-10-21T07:30:06.510Z,15.60
2022-10-21T07:32:34.462Z,15.60
2022-10-21T07:35:02.593Z,15.70
2022-10-21T07:37:30.576Z,15.70
2022-10-21T07:40:00.114Z,15.70
2022-10-21T07:42:29.518Z,15.70
2022-10-21T07:45:01.075Z,15.80
2022-10-21T07:47:29.048Z,15.80
2022-10-21T07:49:57.670Z,15.80
2022-10-21T07:52:25.710Z,15.90
2022-10-21T07:54:53.835Z,15.90
2022-10-21T07:57:23.232Z,16.00
2022-10-21T07:59:51.232Z,16.00
2022-10-21T08:02:19.162Z,16.10
2022-10-21T08:04:47.191Z,16.20
2022-10-21T08:07:15.186Z,16.30
2022-10-21T08:09:43.323Z,16.40
2022-10-21T08:12:14.462Z,16.50
2022-10-21T08:14:45.237Z,16.50
2022-10-21T08:17:13.184Z,16.60
2022-10-21T08:19:41.196Z,16.60
2022-10-21T08:22:09.258Z,16.70
2022-10-21T08:24:39.986Z,16.70
2022-10-21T08:27:10.274Z,16.70
2022-10-21T08:29:40.001Z,16.70
2022-10-21T08:32:09.726Z,16.80
2022-10-21T08:34:38.390Z,16.70
2022-10-21T08:37:06.337Z,16.70
2022-10-21T08:39:34.379Z,16.70
2022-10-21T08:42:13.596Z,16.70
2022-10-21T08:44:46.849Z,16.80
2022-10-21T08:47:31.745Z,16.80
2022-10-21T08:50:05.475Z,16.90
2022-10-21T08:52:40.996Z,16.90
2022-10-21T08:55:16.113Z,16.90
2022-10-21T08:57:44.268Z,16.90
2022-10-21T09:00:16.875Z,16.90
2022-10-21T09:03:13.471Z,16.90
2022-10-21T09:06:18.765Z,16.90
2022-10-21T09:09:00.621Z,17.00
2022-10-21T09:11:39.939Z,17.20
2022-10-21T09:14:34.767Z,17.60
2022-10-21T09:17:19.502Z,17.80
2022-10-21T09:19:56.234Z,17.90
2022-10-21T09:22:41.645Z,18.00
2022-10-21T09:25:20.751Z,18.40
2022-10-21T09:27:56.538Z,18.70
2022-10-21T09:30:26.204Z,18.80
2022-10-21T09:32:58.746Z,18.70
2022-10-21T09:35:34.682Z,18.70
2022-10-21T09:38:07.902Z,18.90
2022-10-21T09:40:36.013Z,19.10
2022-10-21T09:43:06.394Z,19.40
2022-10-21T09:45:36.582Z,19.70
2022-10-21T09:48:07.453Z,20.00
2022-10-21T09:50:40.767Z,20.50
2022-10-21T09:53:14.119Z,20.70
2022-10-21T09:55:44.485Z,20.90
2022-10-21T09:58:26.350Z,21.00
2022-10-21T10:00:55.253Z,21.10
2022-10-21T10:03:34.620Z,21.40
2022-10-21T10:06:05.587Z,21.60
2022-10-21T10:08:37.081Z,21.50
2022-10-21T10:11:17.608Z,21.20
2022-10-21T10:13:47.828Z,20.70
2022-10-21T10:16:26.178Z,20.50
2022-10-21T10:19:10.571Z,20.40
2022-10-21T10:21:39.913Z,20.30
2022-10-21T10:24:16.564Z,20.20
2022-10-21T10:26:44.917Z,20.10
2022-10-21T10:29:25.037Z,20.20
2022-10-21T10:31:57.571Z,20.20
2022-10-21T10:34:30.981Z,20.30
2022-10-21T10:37:05.602Z,20.50
2022-10-21T10:39:36.238Z,20.50
2022-10-21T10:42:05.255Z,20.50
2022-10-21T10:44:37.810Z,20.40
2022-10-21T10:47:09.068Z,20.70
2022-10-21T10:49:40.184Z,21.30
2022-10-21T10:52:21.495Z,21.90
2022-10-21T10:54:50.485Z,22.40
2022-10-21T10:57:30.844Z,23.00
2022-10-21T11:00:17.444Z,23.40
2022-10-21T11:02:52.226Z,23.90
2022-10-21T11:05:24.558Z,24.20
2022-10-21T11:07:56.592Z,24.40
2022-10-21T11:10:33.326Z,24.30
2022-10-21T11:13:02.708Z,24.20
2022-10-21T11:15:47.013Z,24.40
2022-10-21T11:18:24.417Z,24.80
2022-10-21T11:21:02.569Z,25.10
2022-10-21T11:24:03.732Z,25.40
2022-10-21T11:26:43.100Z,25.60
2022-10-21T11:29:26.289Z,25.70
2022-10-21T11:32:12.569Z,25.90
2022-10-21T11:34:51.610Z,26.10
2022-10-21T11:37:26.644Z,26.20
2022-10-21T11:40:04.303Z,26.60
2022-10-21T11:42:39.031Z,27.10
2022-10-21T11:45:37.691Z,26.80
2022-10-21T11:48:17.256Z,26.80
2022-10-21T11:50:56.211Z,26.70
2022-10-21T11:53:37.721Z,26.70
2022-10-21T11:56:21.211Z,27.00
2022-10-21T11:59:01.740Z,27.60
2022-10-21T12:01:45.271Z,27.80
2022-10-21T12:04:26.196Z,28.10
2022-10-21T12:07:11.201Z,28.10
2022-10-21T12:09:45.610Z,28.10
2022-10-21T12:12:17.818Z,28.00
2022-10-21T12:14:49.903Z,27.90
2022-10-21T12:17:20.876Z,28.00
2022-10-21T12:19:55.786Z,28.20
2022-10-21T12:22:27.116Z,28.10
2022-10-21T12:25:01.774Z,28.10
2022-10-21T12:27:40.914Z,28.20
2022-10-21T12:30:15.300Z,28.10
2022-10-21T12:32:51.113Z,28.20
2022-10-21T12:35:27.127Z,28.90
2022-10-21T12:38:21.981Z,28.90
2022-10-21T12:40:51.421Z,29.40
2022-10-21T12:43:27.323Z,29.40
2022-10-21T12:46:08.774Z,29.40
2022-10-21T12:48:40.519Z,29.80
2022-10-21T12:51:19.738Z,29.90
2022-10-21T12:56:31.447Z,30.10
2022-10-21T12:59:03.613Z,29.80
2022-10-21T13:01:38.934Z,29.70
2022-10-21T13:04:36.291Z,29.80
2022-10-21T13:07:05.215Z,29.50
2022-10-21T13:09:39.150Z,29.40
2022-10-21T13:12:29.923Z,29.60
2022-10-21T13:15:01.940Z,29.70
2022-10-21T13:17:51.340Z,29.90
2022-10-21T13:20:49.169Z,29.80
2022-10-21T13:23:38.390Z,30.00
2022-10-21T13:26:14.496Z,30.40
2022-10-21T13:28:42.994Z,30.70
2022-10-21T13:31:22.194Z,31.10
2022-10-21T13:33:54.390Z,31.20
2022-10-21T13:39:22.298Z,30.90
2022-10-21T13:41:59.771Z,30.60
2022-10-21T13:44:32.110Z,30.80
2022-10-21T13:47:19.781Z,30.80
2022-10-21T13:49:52.091Z,30.80
2022-10-21T13:52:20.131Z,30.70
2022-10-21T13:54:56.754Z,30.60
2022-10-21T13:57:24.838Z,30.80
2022-10-21T14:00:01.513Z,30.70
2022-10-21T14:02:33.358Z,30.80
2022-10-21T14:05:01.441Z,31.00
2022-10-21T14:07:29.891Z,31.80
2022-10-21T14:09:59.629Z,32.00
2022-10-21T14:12:30.797Z,31.90
2022-10-21T14:15:06.015Z,32.10
2022-10-21T14:17:39.411Z,31.50
2022-10-21T14:20:14.489Z,30.30
2022-10-21T14:22:42.905Z,29.50
2022-10-21T14:25:16.958Z,28.50
2022-10-21T14:27:47.224Z,27.70
2022-10-21T14:30:21.055Z,27.60
2022-10-21T14:32:51.655Z,27.70
2022-10-21T14:35:29.350Z,27.20
2022-10-21T14:37:58.705Z,26.60
2022-10-21T14:40:31.949Z,25.90
2022-10-21T14:43:02.024Z,25.80
2022-10-21T14:45:32.556Z,26.10
2022-10-21T14:48:09.960Z,26.70
2022-10-21T14:50:40.270Z,27.40
2022-10-21T14:53:16.420Z,27.40
2022-10-21T14:55:45.389Z,27.10
2022-10-21T14:58:23.074Z,26.60
2022-10-21T15:00:55.896Z,25.90
2022-10-21T15:03:42.765Z,25.30
2022-10-21T15:06:13.912Z,25.00
2022-10-21T15:08:43.553Z,24.80
2022-10-21T15:11:40.306Z,24.60
2022-10-21T15:14:19.437Z,24.20
2022-10-21T15:16:49.148Z,23.90
2022-10-21T15:19:21.705Z,23.70
2022-10-21T15:21:52.690Z,23.60
2022-10-21T15:24:24.460Z,23.30
2022-10-21T15:26:54.562Z,23.20
2022-10-21T15:29:29.105Z,23.10
2022-10-21T15:31:58.907Z,23.00
2022-10-21T15:34:28.881Z,22.80
2022-10-21T15:36:57.012Z,22.70
2022-10-21T15:39:24.994Z,22.70
2022-10-21T15:41:55.105Z,22.50
2022-10-21T15:44:26.600Z,22.40
2022-10-21T15:47:00.411Z,22.40
2022-10-21T15:49:33.593Z,22.30
2022-10-21T15:52:02.128Z,22.20
2022-10-21T15:54:30.278Z,22.10
2022-10-21T15:57:00.229Z,22.10
2022-10-21T15:59:29.833Z,22.10
2022-10-21T16:01:58.702Z,22.10
2022-10-21T16:04:27.835Z,22.10
2022-10-21T16:06:57.347Z,22.10
2022-10-21T16:09:28.027Z,22.00
2022-10-21T16:12:00.532Z,21.90
2022-10-21T16:14:30.685Z,21.90
2022-10-21T16:16:59.889Z,21.80
